Time;durP1;ratioP1;P1;durP2;ratioP2;P2;SDS_P1;SDS_P2;PMS_P1;PMS_P2;Temp;Humidity;BMP_temperature;BMP_pressure;BME280_temperature;BME280_humidity;BME280_pressure;Samples;Min_cycle;Max_cycle;Signal;HPM_P1;HPM_P2
2022/03/12 00:01:01;;;;;;;13.53;6.90;;;;;;;-2.80;48.41;102005.28;5064987;28;20443;-71
2022/03/12 00:03:27;;;;;;;15.30;7.23;;;;;;;-2.79;49.58;101999.38;5047677;28;20830;-73
2022/03/12 00:05:54;;;;;;;16.60;7.53;;;;;;;-2.80;49.26;102000.16;5062289;28;20461;-72
2022/03/12 00:08:21;;;;;;;22.00;7.50;;;;;;;-2.76;48.92;101996.97;5062235;28;20573;-71
2022/03/12 00:10:49;;;;;;;15.30;7.63;;;;;;;-2.82;49.83;101997.53;5063986;28;20456;-72
2022/03/12 00:13:18;;;;;;;18.00;7.60;;;;;;;-2.84;49.04;101995.72;5061530;28;20506;-71
2022/03/12 00:15:45;;;;;;;13.97;6.93;;;;;;;-2.88;49.84;101992.13;5065427;28;20463;-71
2022/03/12 00:18:12;;;;;;;15.40;7.83;;;;;;;-2.87;49.90;101994.78;5062893;28;20487;-71
2022/03/12 00:20:39;;;;;;;20.57;7.90;;;;;;;-2.88;49.51;101992.13;5065132;28;20462;-72
2022/03/12 00:23:12;;;;;;;18.03;8.27;;;;;;;-2.90;49.41;101983.53;5044997;28;20470;-71
2022/03/12 00:25:42;;;;;;;16.27;7.83;;;;;;;-2.93;49.76;101983.38;5062664;28;20858;-72
2022/03/12 00:28:09;;;;;;;17.30;8.07;;;;;;;-2.89;50.43;101987.81;5064227;28;20586;-72
2022/03/12 00:30:37;;;;;;;14.60;7.50;;;;;;;-2.91;49.00;101991.97;5062647;28;21248;-71
2022/03/12 00:33:03;;;;;;;17.93;7.90;;;;;;;-2.93;50.12;101986.78;5061422;28;20455;-72
2022/03/12 00:35:31;;;;;;;19.43;7.47;;;;;;;-2.98;50.35;101992.47;5061785;28;20477;-72
2022/03/12 00:37:58;;;;;;;16.60;7.60;;;;;;;-2.97;49.86;101982.34;5062199;28;20997;-71
2022/03/12 00:40:24;;;;;;;17.10;7.77;;;;;;;-2.98;50.16;101997.56;5063291;28;20521;-72
2022/03/12 00:42:51;;;;;;;16.03;7.60;;;;;;;-3.00;50.41;101992.38;5064495;28;20474;-71
2022/03/12 00:45:19;;;;;;;16.73;8.47;;;;;;;-3.02;50.06;101985.47;5063772;28;20466;-71
2022/03/12 00:47:48;;;;;;;16.33;7.93;;;;;;;-3.02;50.36;101988.00;5062932;28;20478;-72
2022/03/12 00:50:14;;;;;;;15.20;8.27;;;;;;;-3.03;51.14;101983.69;5065151;28;20520;-71
2022/03/12 00:52:42;;;;;;;16.87;8.20;;;;;;;-3.06;50.79;101986.94;5062497;28;20457;-73
2022/03/12 00:55:10;;;;;;;15.97;8.33;;;;;;;-3.10;51.10;101983.38;5066767;28;20463;-71
2022/03/12 00:57:36;;;;;;;20.83;8.97;;;;;;;-3.13;51.02;101978.13;5063486;28;20495;-72
2022/03/12 01:00:14;;;;;;;18.23;8.30;;;;;;;-3.17;51.48;101972.78;5062354;28;20463;-71
2022/03/12 01:02:40;;;;;;;17.47;8.20;;;;;;;-3.19;51.62;101971.81;5062680;28;20454;-71
2022/03/12 01:05:10;;;;;;;17.67;7.83;;;;;;;-3.21;51.19;101964.09;5064840;28;20470;-72
2022/03/12 01:07:36;;;;;;;18.17;8.00;;;;;;;-3.18;50.95;101966.81;5062433;28;20529;-71
2022/03/12 01:10:03;;;;;;;18.00;8.43;;;;;;;-3.16;51.74;101969.44;5061178;28;20475;-72
2022/03/12 01:12:30;;;;;;;13.83;8.03;;;;;;;-3.20;53.17;101962.41;5064276;28;20972;-74
2022/03/12 01:14:57;;;;;;;15.20;7.87;;;;;;;-3.28;52.92;101965.44;5062772;28;20594;-70
2022/03/12 01:17:23;;;;;;;18.83;8.97;;;;;;;-3.28;51.92;101977.34;5064077;28;20486;-73
2022/03/12 01:19:49;;;;;;;17.20;7.80;;;;;;;-3.28;51.92;101964.56;5063183;28;21089;-73
2022/03/12 01:22:20;;;;;;;20.97;7.60;;;;;;;-3.30;52.18;101966.19;5061479;28;20469;-75
2022/03/12 01:24:47;;;;;;;21.30;8.53;;;;;;;-3.32;52.94;101955.88;5062153;28;20554;-72
2022/03/12 01:27:15;;;;;;;16.03;8.33;;;;;;;-3.34;51.76;101962.59;5062542;28;20531;-71
2022/03/12 01:29:42;;;;;;;21.40;9.17;;;;;;;-3.39;52.90;101953.81;5063003;28;20458;-71
2022/03/12 01:32:10;;;;;;;18.53;8.57;;;;;;;-3.43;53.21;101951.88;5063202;28;20551;-72
2022/03/12 01:34:37;;;;;;;18.43;8.10;;;;;;;-3.42;53.02;101953.66;5063931;28;20540;-72
2022/03/12 01:37:04;;;;;;;22.47;8.70;;;;;;;-3.45;53.33;101945.84;5064250;28;20470;-71
2022/03/12 01:39:32;;;;;;;14.80;8.50;;;;;;;-3.48;52.56;101943.16;5062273;28;21080;-75
2022/03/12 01:41:59;;;;;;;18.23;8.53;;;;;;;-3.47;52.75;101944.88;5067758;28;20465;-73
2022/03/12 01:44:25;;;;;;;17.40;8.40;;;;;;;-3.47;52.77;101939.78;5064234;28;20462;-73
2022/03/12 01:46:52;;;;;;;18.57;8.70;;;;;;;-3.51;53.19;101936.19;5068331;28;20448;-71
2022/03/12 01:49:20;;;;;;;22.87;8.90;;;;;;;-3.51;53.55;101932.78;5067130;28;20465;-71
2022/03/12 01:51:49;;;;;;;15.80;7.90;;;;;;;-3.53;52.97;101932.69;5067348;28;21004;-73
2022/03/12 01:54:19;;;;;;;21.00;9.37;;;;;;;-3.54;54.46;101933.47;5068319;28;20466;-75
2022/03/12 01:56:47;;;;;;;15.90;8.13;;;;;;;-3.58;53.74;101929.03;5059903;28;20623;-72
2022/03/12 01:59:13;;;;;;;14.50;8.10;;;;;;;-3.59;54.11;101924.72;5066380;28;20472;-71
2022/03/12 02:01:39;;;;;;;15.73;8.30;;;;;;;-3.62;54.87;101925.44;5064464;28;20458;-71
2022/03/12 02:04:09;;;;;;;17.13;8.50;;;;;;;-3.63;53.96;101928.78;5067564;28;20454;-71
2022/03/12 02:06:46;;;;;;;18.87;8.20;;;;;;;-3.64;54.12;101932.16;5065476;28;20450;-71
2022/03/12 02:09:14;;;;;;;18.20;8.50;;;;;;;-3.65;54.22;101932.94;5049622;28;21028;-72
2022/03/12 02:11:41;;;;;;;23.00;8.53;;;;;;;-3.67;54.23;101924.31;5067420;28;20453;-74
2022/03/12 02:14:11;;;;;;;21.07;9.33;;;;;;;-3.71;54.02;101924.97;5066860;28;20609;-71
2022/03/12 02:16:38;;;;;;;16.17;8.50;;;;;;;-3.72;57.81;101925.75;5067862;28;20480;-72
2022/03/12 02:19:07;;;;;;;19.70;8.70;;;;;;;-3.80;56.24;101924.47;5066294;28;20888;-74
2022/03/12 02:21:38;;;;;;;15.60;8.03;;;;;;;-3.83;55.16;101924.31;5068138;28;20459;-71
2022/03/12 02:24:09;;;;;;;19.80;8.53;;;;;;;-3.89;56.01;101918.88;5065595;28;20450;-73
2022/03/12 02:26:36;;;;;;;19.47;8.23;;;;;;;-3.96;56.60;101921.91;5064697;28;20543;-72
2022/03/12 02:29:06;;;;;;;19.50;8.57;;;;;;;-3.97;55.58;101930.31;5065315;28;20489;-74
2022/03/12 02:31:32;;;;;;;18.63;8.77;;;;;;;-4.00;55.73;101931.06;5048733;28;20488;-72
2022/03/12 02:34:01;;;;;;;19.20;8.80;;;;;;;-4.03;56.36;101928.31;5067145;28;20815;-71
2022/03/12 02:36:28;;;;;;;17.70;8.80;;;;;;;-4.08;56.77;101917.00;5062627;28;20509;-73
2022/03/12 02:38:55;;;;;;;17.30;8.27;;;;;;;-4.09;55.93;101922.91;5068637;28;20477;-71
2022/03/12 02:41:24;;;;;;;17.67;8.20;;;;;;;-4.11;56.52;101920.28;5066178;28;20453;-71
2022/03/12 02:43:51;;;;;;;15.73;8.30;;;;;;;-4.12;57.07;101925.28;5067468;28;20993;-73
2022/03/12 02:46:18;;;;;;;20.40;8.67;;;;;;;-4.14;56.74;101924.34;5066435;28;20458;-72
2022/03/12 02:48:52;;;;;;;18.37;9.03;;;;;;;-4.15;57.69;101923.47;5045847;28;20579;-72
2022/03/12 02:51:21;;;;;;;18.67;8.23;;;;;;;-4.18;57.41;101931.81;5066818;28;20464;-72
2022/03/12 02:53:49;;;;;;;17.23;8.83;;;;;;;-4.20;56.54;101929.97;5066580;28;20515;-71
2022/03/12 02:56:16;;;;;;;19.03;9.07;;;;;;;-4.22;56.26;101926.44;5066821;28;20484;-72
2022/03/12 02:58:43;;;;;;;22.50;9.53;;;;;;;-4.24;56.34;101925.50;5062211;28;20477;-71
2022/03/12 03:01:14;;;;;;;18.57;8.70;;;;;;;-4.25;56.33;101921.22;5064095;28;20465;-71
2022/03/12 03:03:41;;;;;;;24.10;8.57;;;;;;;-4.29;58.07;101922.72;5057166;28;20957;-71
2022/03/12 03:06:08;;;;;;;20.93;9.13;;;;;;;-4.32;57.80;101927.63;5066329;28;20484;-71
2022/03/12 03:08:36;;;;;;;16.73;8.50;;;;;;;-4.26;58.97;101922.84;5066291;28;20472;-72
2022/03/12 03:11:10;;;;;;;23.27;9.20;;;;;;;-4.33;57.64;101922.44;5068999;28;20490;-71
2022/03/12 03:13:40;;;;;;;20.27;8.77;;;;;;;-4.39;56.93;101925.53;5066759;28;21033;-71
2022/03/12 03:16:19;;;;;;;19.07;9.23;;;;;;;-4.41;58.18;101920.34;5064699;28;21032;-71
2022/03/12 03:18:50;;;;;;;16.93;8.23;;;;;;;-4.46;57.97;101921.75;5065841;28;20575;-70
2022/03/12 03:21:18;;;;;;;23.50;8.93;;;;;;;-4.47;57.51;101912.34;5065728;28;20898;-71
2022/03/12 03:23:46;;;;;;;16.37;9.43;;;;;;;-4.50;57.43;101906.22;5067771;28;20460;-72
2022/03/12 03:26:14;;;;;;;21.73;9.17;;;;;;;-4.52;59.34;101908.72;5065779;28;20465;-74
2022/03/12 03:28:41;;;;;;;22.33;8.53;;;;;;;-4.55;59.60;101910.22;5067838;28;20498;-73
2022/03/12 03:31:07;;;;;;;20.37;8.50;;;;;;;-4.58;58.41;101909.22;5067468;28;20467;-71
2022/03/12 03:33:35;;;;;;;22.17;9.93;;;;;;;-4.60;59.31;101908.25;5057898;28;20460;-71
2022/03/12 03:36:02;;;;;;;17.07;8.63;;;;;;;-4.65;58.65;101906.25;5058925;28;20461;-71
2022/03/12 03:38:28;;;;;;;22.20;9.67;;;;;;;-4.64;58.43;101916.53;5056895;28;20487;-71
2022/03/12 03:40:54;;;;;;;18.60;9.30;;;;;;;-4.68;59.01;101913.72;5061833;28;20456;-71
2022/03/12 03:43:22;;;;;;;20.80;9.93;;;;;;;-4.73;59.55;101903.28;5061399;28;20465;-71
2022/03/12 03:45:53;;;;;;;20.00;9.70;;;;;;;-4.74;58.83;101914.25;5060410;28;20497;-71
2022/03/12 03:48:22;;;;;;;20.37;9.17;;;;;;;-4.71;58.83;101909.34;5057883;28;20482;-71
2022/03/12 03:50:52;;;;;;;17.00;8.63;;;;;;;-4.72;58.66;101907.56;5060877;28;20921;-71
2022/03/12 03:53:22;;;;;;;18.23;8.83;;;;;;;-4.69;59.72;101914.53;5046342;28;20468;-71
2022/03/12 03:55:50;;;;;;;19.70;9.47;;;;;;;-4.69;59.54;101907.75;5059554;28;20809;-71
2022/03/12 03:58:17;;;;;;;26.60;10.27;;;;;;;-4.71;59.59;101909.34;5060898;28;20538;-72
2022/03/12 04:00:53;;;;;;;22.40;9.67;;;;;;;-4.71;59.44;101903.34;5060597;28;20460;-71
2022/03/12 04:03:19;;;;;;;24.60;10.13;;;;;;;-4.73;59.03;101915.13;5065501;28;20448;-71
2022/03/12 04:05:47;;;;;;;20.83;10.20;;;;;;;-4.77;59.34;101907.34;5048495;28;20484;-73
2022/03/12 04:08:14;;;;;;;17.57;8.93;;;;;;;-4.75;61.64;101904.84;5044992;28;20473;-71
2022/03/12 04:10:41;;;;;;;18.27;8.93;;;;;;;-4.78;60.12;101907.25;5065650;28;20469;-73
2022/03/12 04:13:12;;;;;;;18.10;9.47;;;;;;;-4.82;60.64;101902.75;5064163;28;20457;-72
2022/03/12 04:15:39;;;;;;;19.30;9.17;;;;;;;-4.85;60.08;101906.00;5068133;28;20864;-72
2022/03/12 04:18:07;;;;;;;18.07;9.53;;;;;;;-4.88;62.97;101899.88;5062996;28;20476;-71
2022/03/12 04:20:34;;;;;;;19.50;8.77;;;;;;;-4.92;60.50;101905.56;5065510;28;20461;-71
2022/03/12 04:23:01;;;;;;;18.33;9.17;;;;;;;-4.96;61.93;101905.41;5065385;28;20464;-72
2022/03/12 04:25:31;;;;;;;18.30;8.43;;;;;;;-4.97;62.02;101910.41;5067141;28;21021;-71
2022/03/12 04:27:58;;;;;;;23.40;9.30;;;;;;;-4.97;62.25;101906.19;5066574;28;20484;-71
2022/03/12 04:30:25;;;;;;;20.70;9.37;;;;;;;-4.97;62.34;101898.53;5059962;28;20457;-73
2022/03/12 04:32:52;;;;;;;18.30;9.07;;;;;;;-4.99;63.00;101894.16;5065668;28;20819;-71
2022/03/12 04:35:19;;;;;;;19.50;9.67;;;;;;;-5.02;63.69;101894.84;5065976;28;20457;-74
2022/03/12 04:37:45;;;;;;;20.60;9.33;;;;;;;-5.05;61.05;101897.22;5065615;28;20480;-71
2022/03/12 04:40:17;;;;;;;21.50;8.73;;;;;;;-5.04;62.47;101891.34;5064207;28;20461;-71
2022/03/12 04:42:45;;;;;;;24.70;9.80;;;;;;;-5.08;61.55;101886.88;5065773;28;20551;-71
2022/03/12 04:45:12;;;;;;;21.80;9.10;;;;;;;-5.04;62.37;101891.34;5064883;28;20468;-71
2022/03/12 04:47:42;;;;;;;20.57;9.63;;;;;;;-5.04;61.55;101896.44;5065106;28;20945;-72
2022/03/12 04:50:12;;;;;;;20.53;9.50;;;;;;;-5.05;61.26;101896.34;5066170;28;20457;-71
2022/03/12 04:52:39;;;;;;;22.03;10.00;;;;;;;-5.06;61.08;101894.63;5048306;28;20437;-71
2022/03/12 04:55:09;;;;;;;27.40;9.77;;;;;;;-5.02;63.50;101896.53;5067293;28;20468;-71
2022/03/12 04:57:36;;;;;;;27.47;10.43;;;;;;;-5.10;61.74;101896.09;5063456;28;20553;-73
2022/03/12 05:00:06;;;;;;;21.33;9.50;;;;;;;-5.10;62.66;101897.75;5065364;28;20456;-71
2022/03/12 05:02:33;;;;;;;23.87;10.67;;;;;;;-5.14;61.62;101899.22;5067572;28;20960;-72
2022/03/12 05:04:59;;;;;;;20.80;9.90;;;;;;;-5.10;62.30;101900.28;5065430;28;20467;-71
2022/03/12 05:07:26;;;;;;;19.47;9.20;;;;;;;-5.11;61.56;101898.56;5070023;28;20479;-72
2022/03/12 05:09:56;;;;;;;17.47;8.93;;;;;;;-5.07;60.93;101903.88;5071140;28;20457;-73
2022/03/12 05:12:23;;;;;;;21.43;9.57;;;;;;;-5.08;61.04;101901.25;5068955;28;20457;-71
2022/03/12 05:14:51;;;;;;;19.30;9.60;;;;;;;-5.01;60.70;101909.34;5066820;28;20456;-71
2022/03/12 05:17:23;;;;;;;18.30;9.67;;;;;;;-5.02;60.79;101894.84;5052898;28;20491;-71
2022/03/12 05:19:50;;;;;;;17.10;9.00;;;;;;;-5.03;61.38;101898.22;5049338;28;20449;-71
2022/03/12 05:22:16;;;;;;;20.80;9.80;;;;;;;-4.98;60.57;101889.19;5063095;28;20963;-71
2022/03/12 05:24:42;;;;;;;19.70;10.13;;;;;;;-5.02;61.67;101894.00;5048826;28;20457;-71
2022/03/12 05:27:12;;;;;;;17.00;9.33;;;;;;;-5.03;61.61;101887.13;5066617;28;20461;-73
2022/03/12 05:29:39;;;;;;;20.83;10.07;;;;;;;-5.08;61.00;101889.44;5066670;28;20448;-71
2022/03/12 05:32:07;;;;;;;16.83;9.50;;;;;;;-5.08;61.56;101889.44;5067399;28;21004;-71
2022/03/12 05:34:35;;;;;;;22.10;10.00;;;;;;;-5.07;63.01;101890.31;5066916;28;20507;-72
2022/03/12 05:37:08;;;;;;;20.97;9.50;;;;;;;-5.08;61.27;101894.53;5064457;28;20904;-73
2022/03/12 05:39:35;;;;;;;18.67;9.57;;;;;;;-5.02;61.19;101891.44;5065895;28;20539;-71
2022/03/12 05:42:03;;;;;;;23.20;9.83;;;;;;;-5.01;61.90;101890.66;5061506;28;20530;-71
2022/03/12 05:44:30;;;;;;;22.37;9.97;;;;;;;-5.00;61.30;101882.22;5067047;28;20863;-72
2022/03/12 05:46:57;;;;;;;20.30;9.83;;;;;;;-5.00;61.18;101882.22;5066228;28;20808;-72
2022/03/12 05:49:23;;;;;;;22.17;9.17;;;;;;;-4.92;60.45;101883.56;5048704;28;20483;-72
2022/03/12 05:51:51;;;;;;;20.97;9.93;;;;;;;-4.90;60.49;101888.72;5067935;28;20969;-71
2022/03/12 05:54:19;;;;;;;21.33;9.70;;;;;;;-4.89;60.38;101890.47;5066431;28;20955;-71
2022/03/12 05:56:46;;;;;;;19.57;10.27;;;;;;;-4.85;60.42;101893.28;5065875;28;20456;-71
2022/03/12 05:59:12;;;;;;;21.53;9.93;;;;;;;-4.84;60.28;101895.03;5065894;28;20488;-70
2022/03/12 06:01:38;;;;;;;20.30;9.70;;;;;;;-4.82;61.78;101897.66;5067236;28;20459;-71
2022/03/12 06:04:05;;;;;;;26.53;13.80;;;;;;;-4.78;61.16;101891.97;5050214;28;20457;-72
2022/03/12 06:06:35;;;;;;;24.17;10.43;;;;;;;-4.74;60.12;101896.44;5065630;28;20462;-71
2022/03/12 06:09:07;;;;;;;16.77;9.73;;;;;;;-4.68;60.00;101895.91;5045699;28;20885;-71
2022/03/12 06:11:35;;;;;;;23.80;10.40;;;;;;;-4.68;60.45;101896.75;5064667;28;21052;-72
2022/03/12 06:14:01;;;;;;;25.23;9.90;;;;;;;-4.63;59.95;101897.91;5065605;28;20467;-70
2022/03/12 06:16:28;;;;;;;19.97;9.33;;;;;;;-4.61;60.08;101906.53;5068719;28;20457;-71
2022/03/12 06:18:54;;;;;;;19.83;9.03;;;;;;;-4.58;60.25;101905.81;5066761;28;20476;-71
2022/03/12 06:21:21;;;;;;;22.30;10.33;;;;;;;-4.54;60.12;101914.50;5067646;28;20463;-72
2022/03/12 06:23:49;;;;;;;20.03;9.40;;;;;;;-4.55;60.46;101918.72;5066327;28;20494;-71
2022/03/12 06:26:18;;;;;;;18.57;9.33;;;;;;;-4.48;60.07;101910.63;5060149;28;20458;-72
2022/03/12 06:28:45;;;;;;;19.97;9.33;;;;;;;-4.40;60.06;101916.13;5071761;28;20484;-72
2022/03/12 06:31:12;;;;;;;27.57;9.47;;;;;;;-4.40;60.59;101923.75;5067014;28;20958;-71
2022/03/12 06:33:39;;;;;;;20.80;10.03;;;;;;;-4.39;59.95;101918.75;5047910;28;20452;-71
2022/03/12 06:36:08;;;;;;;18.53;8.93;;;;;;;-4.37;60.76;101917.16;5070943;28;21018;-71
2022/03/12 06:38:37;;;;;;;22.93;10.13;;;;;;;-4.30;59.79;101920.06;5068468;28;20473;-71
2022/03/12 06:41:03;;;;;;;18.60;10.07;;;;;;;-4.19;59.10;101921.53;5073126;28;20460;-73
2022/03/12 06:43:33;;;;;;;21.10;9.50;;;;;;;-4.15;59.12;101915.81;5068866;28;20452;-71
2022/03/12 06:46:01;;;;;;;20.30;9.27;;;;;;;-4.08;59.08;101917.91;5063619;28;20468;-72
2022/03/12 06:48:29;;;;;;;22.03;9.90;;;;;;;-4.00;58.44;101923.41;5074576;28;20480;-71
2022/03/12 06:50:56;;;;;;;21.03;9.63;;;;;;;-3.85;57.73;101939.53;5067688;28;20829;-71
2022/03/12 06:53:22;;;;;;;19.03;9.63;;;;;;;-3.82;58.11;101942.25;5065225;28;20558;-71
2022/03/12 06:55:49;;;;;;;23.53;9.63;;;;;;;-3.65;57.16;101940.56;5069516;28;20453;-71
2022/03/12 06:58:15;;;;;;;22.73;10.70;;;;;;;-3.59;57.37;101940.00;5064931;28;20598;-74
2022/03/12 07:00:43;;;;;;;22.07;10.27;;;;;;;-3.50;57.35;101947.28;5069869;28;21082;-71
2022/03/12 07:03:09;;;;;;;21.13;10.10;;;;;;;-3.37;56.41;101943.69;5073897;28;20523;-71
2022/03/12 07:05:36;;;;;;;22.83;10.07;;;;;;;-3.28;57.33;101952.69;5065468;28;20465;-72
2022/03/12 07:08:03;;;;;;;23.00;10.03;;;;;;;-3.22;56.32;101947.03;5067911;28;20927;-74
2022/03/12 07:10:30;;;;;;;20.40;10.47;;;;;;;-3.13;56.40;101952.63;5069935;28;20828;-71
2022/03/12 07:12:56;;;;;;;19.63;10.27;;;;;;;-2.99;55.42;101952.41;5069402;28;20450;-72
2022/03/12 07:15:23;;;;;;;19.67;10.03;;;;;;;-2.90;54.88;101958.00;5066108;28;20458;-72
2022/03/12 07:17:51;;;;;;;19.93;10.53;;;;;;;-2.81;54.88;101953.34;5071320;28;20527;-71
2022/03/12 07:20:19;;;;;;;18.10;9.93;;;;;;;-2.70;55.23;101948.78;5068980;28;20450;-73
2022/03/12 07:22:46;;;;;;;22.47;10.50;;;;;;;-2.64;54.86;101951.59;5067182;28;20457;-71
2022/03/12 07:25:14;;;;;;;22.73;9.53;;;;;;;-2.55;54.24;101956.28;5069417;28;20449;-71
2022/03/12 07:27:41;;;;;;;23.80;9.40;;;;;;;-2.38;53.41;101946.91;5064150;28;21384;-73
2022/03/12 07:30:10;;;;;;;21.10;9.40;;;;;;;-2.35;53.39;101955.59;5058267;28;20462;-71
2022/03/12 07:32:36;;;;;;;17.30;8.73;;;;;;;-2.15;52.63;101958.19;5057120;28;20492;-73
2022/03/12 07:35:04;;;;;;;18.60;8.90;;;;;;;-2.06;53.18;101955.19;5056171;28;20482;-74
2022/03/12 07:37:31;;;;;;;20.83;9.47;;;;;;;-2.05;53.30;101942.50;5055809;28;20472;-73
2022/03/12 07:39:57;;;;;;;17.30;9.23;;;;;;;-1.92;52.16;101946.50;5057443;28;20817;-72
2022/03/12 07:42:24;;;;;;;17.80;8.53;;;;;;;-1.79;51.46;101950.50;5055512;28;20830;-72
2022/03/12 07:44:50;;;;;;;15.13;8.63;;;;;;;-1.67;51.75;101951.06;5056076;28;20467;-74
2022/03/12 07:47:17;;;;;;;17.07;8.67;;;;;;;-1.51;50.72;101955.19;5053355;28;20471;-74
2022/03/12 07:49:43;;;;;;;16.40;8.43;;;;;;;-1.45;50.63;101949.44;5049058;28;20478;-73
2022/03/12 07:52:11;;;;;;;16.57;8.67;;;;;;;-1.34;49.97;101956.81;5052974;28;20464;-74
2022/03/12 07:54:39;;;;;;;19.03;8.30;;;;;;;-1.27;49.87;101950.22;5053083;28;20917;-72
2022/03/12 07:57:05;;;;;;;16.83;7.83;;;;;;;-1.06;49.47;101950.28;5052965;28;20468;-72
2022/03/12 07:59:34;;;;;;;18.13;8.60;;;;;;;-0.92;49.08;101953.44;5046757;28;20484;-73
2022/03/12 08:02:01;;;;;;;16.70;8.60;;;;;;;-0.74;47.70;101955.00;5046930;28;20335;-74
2022/03/12 08:04:27;;;;;;;15.70;8.30;;;;;;;-0.61;47.44;101959.84;5050275;28;20461;-72
2022/03/12 08:06:59;;;;;;;16.07;8.00;;;;;;;-0.43;46.76;101952.88;5029581;28;20220;-73
2022/03/12 08:09:27;;;;;;;14.93;8.10;;;;;;;-0.23;46.32;101950.22;5048873;28;21130;-73
2022/03/12 08:11:53;;;;;;;14.33;7.37;;;;;;;-0.23;46.65;101952.78;5049833;28;20222;-74
2022/03/12 08:14:22;;;;;;;15.93;7.43;;;;;;;-0.12;45.92;101961.81;5061928;28;21031;-73
2022/03/12 08:16:51;;;;;;;16.83;7.40;;;;;;;0.01;45.74;101958.00;5052483;28;20733;-74
2022/03/12 08:19:18;;;;;;;16.03;7.63;;;;;;;0.14;45.44;101962.81;5058454;28;20218;-72
2022/03/12 08:21:45;;;;;;;13.53;7.27;;;;;;;0.25;45.46;101959.78;5061715;28;20198;-71
2022/03/12 08:24:15;;;;;;;17.03;7.60;;;;;;;0.39;45.49;101956.03;5062605;28;20205;-71
2022/03/12 08:26:43;;;;;;;14.93;7.37;;;;;;;0.57;45.51;101951.53;5066120;28;20198;-72
2022/03/12 08:29:13;;;;;;;15.27;7.40;;;;;;;0.68;44.23;101951.06;5066060;28;20234;-71
2022/03/12 08:31:41;;;;;;;15.70;7.10;;;;;;;0.86;44.00;101953.41;5072626;28;20211;-73
2022/03/12 08:34:09;;;;;;;15.67;7.17;;;;;;;0.99;43.26;101957.28;5066981;28;20241;-73
2022/03/12 08:36:35;;;;;;;12.90;6.17;;;;;;;1.16;42.90;101951.00;5065481;28;20206;-72
2022/03/12 08:39:02;;;;;;;13.73;6.20;;;;;;;1.29;41.95;101957.44;5066320;28;20221;-72
2022/03/12 08:41:29;;;;;;;10.27;5.67;;;;;;;1.46;40.75;101948.59;5065796;28;20214;-72
2022/03/12 08:43:56;;;;;;;11.77;5.20;;;;;;;1.64;39.96;101956.00;5050697;28;20206;-75
2022/03/12 08:46:23;;;;;;;8.90;4.40;;;;;;;1.81;39.29;101953.09;5049625;28;20202;-73
2022/03/12 08:48:49;;;;;;;7.23;4.13;;;;;;;1.97;38.10;101959.56;5045338;28;20215;-75
2022/03/12 08:51:16;;;;;;;9.20;5.20;;;;;;;2.07;38.33;101957.31;5046675;28;20201;-74
2022/03/12 08:53:42;;;;;;;8.13;4.30;;;;;;;2.31;37.56;101947.72;5030651;28;20205;-73
2022/03/12 08:56:09;;;;;;;6.27;3.97;;;;;;;2.50;36.66;101955.16;5048624;28;20205;-73
2022/03/12 08:58:37;;;;;;;6.97;4.00;;;;;;;2.57;35.11;101951.03;5047161;28;20235;-72
2022/03/12 09:01:06;;;;;;;5.80;3.20;;;;;;;2.88;34.65;101957.03;5050446;28;20411;-73
2022/03/12 09:03:33;;;;;;;7.70;3.70;;;;;;;2.98;34.24;101953.88;5051206;28;20200;-74
2022/03/12 09:06:00;;;;;;;7.30;3.83;;;;;;;3.14;33.96;101962.88;5050002;28;20216;-74
2022/03/12 09:08:26;;;;;;;6.20;3.40;;;;;;;3.15;33.62;101964.59;5047728;28;20444;-73
2022/03/12 09:10:55;;;;;;;4.93;3.20;;;;;;;3.36;32.62;101954.84;5048608;28;20206;-73
2022/03/12 09:13:22;;;;;;;4.97;3.27;;;;;;;3.48;32.36;101954.25;5049003;28;20198;-73
2022/03/12 09:15:48;;;;;;;4.30;3.00;;;;;;;3.66;31.68;101964.16;5050193;28;21683;-73
2022/03/12 09:18:20;;;;;;;6.47;3.67;;;;;;;3.78;31.90;101955.81;5050114;28;20218;-74
2022/03/12 09:20:47;;;;;;;4.87;3.43;;;;;;;3.86;31.60;101959.47;5048404;28;20197;-74
2022/03/12 09:23:14;;;;;;;8.33;3.47;;;;;;;3.94;31.56;101959.63;5048461;28;21517;-74
2022/03/12 09:25:41;;;;;;;7.03;3.20;;;;;;;4.10;31.42;101953.97;5045527;28;20210;-74
2022/03/12 09:28:08;;;;;;;7.67;3.47;;;;;;;4.15;29.92;101952.38;5046648;28;20258;-74
2022/03/12 09:30:35;;;;;;;6.63;3.20;;;;;;;4.39;29.16;101955.44;5026822;28;20221;-73
2022/03/12 09:33:01;;;;;;;10.33;3.40;;;;;;;4.38;30.04;101962.31;5044826;28;20198;-75
2022/03/12 09:35:29;;;;;;;9.40;2.60;;;;;;;4.42;29.19;101956.38;5043063;28;20204;-75
2022/03/12 09:37:55;;;;;;;8.23;3.40;;;;;;;4.70;28.12;101951.75;5043578;28;20893;-76
2022/03/12 09:40:22;;;;;;;6.83;3.17;;;;;;;4.84;27.88;101954.59;5043275;28;20222;-75
2022/03/12 09:42:49;;;;;;;5.70;3.07;;;;;;;4.94;28.09;101951.31;5045442;28;20195;-72
2022/03/12 09:45:15;;;;;;;10.20;3.47;;;;;;;4.98;27.72;101952.25;5053770;28;20221;-76
2022/03/12 09:47:42;;;;;;;5.93;3.10;;;;;;;5.03;28.34;101945.44;5041058;28;20225;-74
2022/03/12 09:50:10;;;;;;;7.40;2.87;;;;;;;5.06;28.10;101937.75;5041424;28;20226;-74
2022/03/12 09:52:37;;;;;;;4.83;2.97;;;;;;;5.19;28.90;101944.00;5044112;28;20199;-75
2022/03/12 09:55:05;;;;;;;3.83;2.70;;;;;;;5.31;26.94;101941.63;5046080;28;20207;-74
2022/03/12 09:57:32;;;;;;;4.70;2.80;;;;;;;5.34;26.54;101941.69;5049253;28;20233;-75
2022/03/12 09:59:59;;;;;;;9.07;3.07;;;;;;;5.44;26.50;101942.72;5039049;28;20967;-75
2022/03/12 10:02:25;;;;;;;14.67;2.87;;;;;;;5.43;26.83;101943.53;5044963;28;20194;-75
2022/03/12 10:04:53;;;;;;;5.13;2.70;;;;;;;5.60;25.87;101942.09;5044177;28;20202;-75
2022/03/12 10:07:20;;;;;;;5.63;3.10;;;;;;;5.71;26.37;101941.41;5026837;28;20228;-72
2022/03/12 10:09:47;;;;;;;7.47;3.13;;;;;;;5.72;27.02;101927.59;5044355;28;20202;-75
2022/03/12 10:12:14;;;;;;;4.70;3.20;;;;;;;5.76;26.95;101937.16;5046112;28;20597;-73
2022/03/12 10:14:41;;;;;;;5.30;3.00;;;;;;;5.84;26.42;101931.25;5044653;28;20606;-74
2022/03/12 10:17:07;;;;;;;5.80;3.40;;;;;;;5.96;26.79;101932.28;5044643;28;20208;-73
2022/03/12 10:19:38;;;;;;;6.03;3.43;;;;;;;6.04;25.93;101931.53;5043635;28;20295;-74
2022/03/12 10:22:06;;;;;;;4.17;3.17;;;;;;;6.04;26.42;101930.69;5043588;28;20609;-75
2022/03/12 10:24:33;;;;;;;6.07;3.20;;;;;;;6.20;26.40;101924.84;5043926;28;20209;-75
2022/03/12 10:27:00;;;;;;;21.00;11.87;;;;;;;6.39;26.03;101923.34;5053379;28;20634;-74
2022/03/12 10:29:27;;;;;;;4.83;2.90;;;;;;;6.43;25.74;101925.13;5049024;28;20288;-75
2022/03/12 10:31:53;;;;;;;5.30;3.47;;;;;;;6.52;24.95;101926.94;5043135;28;20995;-74
2022/03/12 10:34:22;;;;;;;4.90;3.00;;;;;;;6.50;25.50;101927.78;5026248;28;20210;-75
2022/03/12 10:36:49;;;;;;;6.07;3.07;;;;;;;6.54;26.52;101916.59;5044785;28;20209;-74
2022/03/12 10:39:16;;;;;;;5.13;3.00;;;;;;;6.54;26.04;101917.47;5043410;28;20595;-75
2022/03/12 10:41:43;;;;;;;6.73;4.23;;;;;;;6.57;25.43;101916.66;5044432;28;20201;-74
2022/03/12 10:44:11;;;;;;;5.97;3.83;;;;;;;6.66;25.63;101915.88;5045108;28;20214;-75
2022/03/12 10:46:44;;;;;;;5.07;3.90;;;;;;;6.72;25.11;101916.81;5025479;28;20318;-74
2022/03/12 10:49:23;;;;;;;6.07;3.37;;;;;;;6.86;25.53;101916.97;5045242;28;20642;-73
2022/03/12 10:51:49;;;;;;;10.30;6.37;;;;;;;6.83;25.83;101910.00;5048652;28;20259;-76
2022/03/12 10:54:16;;;;;;;8.63;3.93;;;;;;;6.93;24.91;101908.38;5047025;28;20209;-75
2022/03/12 10:56:47;;;;;;;7.43;3.23;;;;;;;6.97;24.58;101911.88;5047762;28;20226;-77
2022/03/12 10:59:19;;;;;;;5.13;3.03;;;;;;;6.91;24.89;101916.97;5047180;28;20556;-76
2022/03/12 11:01:50;;;;;;;8.40;3.83;;;;;;;6.95;25.30;101909.25;5058592;28;20304;-76
2022/03/12 11:04:19;;;;;;;36.33;5.03;;;;;;;6.99;25.89;101899.78;5047896;28;20451;-74
2022/03/12 11:06:46;;;;;;;6.60;3.10;;;;;;;7.09;25.23;101911.97;5046217;28;20202;-76
2022/03/12 11:09:18;;;;;;;4.27;3.13;;;;;;;7.15;24.44;101906.84;5046851;28;20669;-74
2022/03/12 11:11:46;;;;;;;6.33;3.47;;;;;;;7.17;24.20;101905.13;5046287;28;20635;-74
2022/03/12 11:14:21;;;;;;;7.53;3.70;;;;;;;7.25;24.06;101894.81;5045016;28;20274;-75
2022/03/12 11:16:52;;;;;;;5.97;3.10;;;;;;;7.37;24.53;101892.31;5061461;28;20950;-76
2022/03/12 11:19:37;;;;;;;6.33;3.30;;;;;;;7.44;24.05;101895.84;5046088;28;20230;-75
2022/03/12 11:22:10;;;;;;;5.50;3.90;;;;;;;7.36;24.51;101894.91;5045660;28;20214;-76